createdAt,value
2022-10-05T00:00:29.560Z,4.70
2022-10-05T00:02:59.375Z,4.73
2022-10-05T00:05:30.354Z,5.10
2022-10-05T00:08:02.714Z,4.70
2022-10-05T00:10:30.622Z,4.70
2022-10-05T00:12:58.320Z,5.23
2022-10-05T00:15:26.046Z,4.83
2022-10-05T00:17:53.772Z,5.00
2022-10-05T00:20:25.611Z,4.70
2022-10-05T00:22:58.285Z,4.87
2022-10-05T00:25:26.450Z,4.63
2022-10-05T00:27:57.291Z,4.93
2022-10-05T00:30:26.953Z,5.50
2022-10-05T00:32:59.272Z,4.93
2022-10-05T00:35:30.829Z,5.13
2022-10-05T00:37:58.629Z,5.17
2022-10-05T00:40:36.439Z,5.20
2022-10-05T00:43:20.493Z,5.43
2022-10-05T00:45:52.691Z,4.53
2022-10-05T00:48:32.645Z,4.67
2022-10-05T00:51:16.300Z,4.83
2022-10-05T00:53:53.531Z,5.10
2022-10-05T00:56:34.624Z,5.27
2022-10-05T00:59:12.095Z,5.30
2022-10-05T01:01:45.879Z,5.13
2022-10-05T01:04:21.711Z,5.30
2022-10-05T01:07:05.208Z,4.80
2022-10-05T01:09:43.079Z,5.80
2022-10-05T01:12:20.014Z,5.20
2022-10-05T01:14:56.986Z,5.17
2022-10-05T01:17:30.422Z,5.13
2022-10-05T01:20:12.822Z,5.33
2022-10-05T01:23:02.268Z,5.07
2022-10-05T01:25:38.292Z,4.90
2022-10-05T01:28:13.302Z,4.97
2022-10-05T01:30:45.773Z,5.30
2022-10-05T01:33:20.144Z,5.57
2022-10-05T01:35:56.140Z,5.63
2022-10-05T01:38:40.735Z,4.90
2022-10-05T01:41:19.511Z,5.10
2022-10-05T01:43:53.105Z,5.20
2022-10-05T01:46:29.714Z,5.10
2022-10-05T01:49:14.804Z,5.10
2022-10-05T01:51:55.133Z,5.53
2022-10-05T01:54:33.555Z,5.27
2022-10-05T01:57:10.241Z,5.30
2022-10-05T01:59:54.243Z,5.37
2022-10-05T02:02:24.801Z,5.27
2022-10-05T02:05:02.074Z,5.57
2022-10-05T02:07:35.418Z,5.23
2022-10-05T02:10:09.947Z,5.27
2022-10-05T02:12:39.316Z,6.40
2022-10-05T02:15:15.036Z,5.50
2022-10-05T02:17:46.776Z,5.90
2022-10-05T02:20:21.838Z,5.67
2022-10-05T02:22:52.874Z,5.20
2022-10-05T02:25:23.951Z,5.40
2022-10-05T02:27:57.897Z,5.60
2022-10-05T02:30:29.810Z,6.07
2022-10-05T02:33:02.232Z,6.03
2022-10-05T02:35:29.955Z,5.67
2022-10-05T02:38:10.361Z,5.37
2022-10-05T02:40:48.810Z,6.20
2022-10-05T02:43:26.120Z,6.67
2022-10-05T02:46:02.447Z,5.80
2022-10-05T02:48:41.376Z,5.60
2022-10-05T02:51:20.840Z,5.47
2022-10-05T02:54:00.307Z,6.03
2022-10-05T02:56:34.207Z,5.83
2022-10-05T02:59:09.718Z,5.20
2022-10-05T03:01:45.409Z,6.20
2022-10-05T03:04:26.854Z,5.60
2022-10-05T03:07:00.068Z,6.70
2022-10-05T03:09:32.561Z,4.83
2022-10-05T03:12:10.752Z,5.40
2022-10-05T03:14:50.387Z,5.47
2022-10-05T03:17:21.963Z,5.70
2022-10-05T03:20:08.399Z,5.60
2022-10-05T03:22:49.184Z,6.20
2022-10-05T03:25:41.930Z,5.03
2022-10-05T03:28:16.375Z,5.80
2022-10-05T03:30:50.449Z,5.37
2022-10-05T03:33:27.079Z,5.77
2022-10-05T03:36:04.395Z,5.90
2022-10-05T03:38:42.617Z,5.77
2022-10-05T03:41:17.397Z,5.93
2022-10-05T03:44:09.164Z,6.37
2022-10-05T03:46:48.392Z,5.43
2022-10-05T03:49:28.621Z,6.20
2022-10-05T03:52:02.217Z,5.77
2022-10-05T03:54:36.095Z,5.40
2022-10-05T03:57:10.721Z,5.77
2022-10-05T03:59:44.075Z,6.20
2022-10-05T04:02:20.969Z,6.00
2022-10-05T04:04:54.214Z,6.50
2022-10-05T04:07:42.771Z,5.87
2022-10-05T04:10:17.662Z,6.17
2022-10-05T04:12:50.740Z,6.20
2022-10-05T04:15:28.181Z,6.13
2022-10-05T04:18:01.699Z,5.70
2022-10-05T04:20:38.003Z,6.00
2022-10-05T04:23:14.770Z,6.40
2022-10-05T04:25:46.898Z,6.03
2022-10-05T04:28:31.070Z,5.87
2022-10-05T04:31:04.677Z,6.07
2022-10-05T04:33:33.109Z,6.20
2022-10-05T04:36:16.867Z,5.90
2022-10-05T04:38:53.672Z,6.50
2022-10-05T04:41:42.897Z,5.87
2022-10-05T04:44:23.978Z,6.07
2022-10-05T04:47:08.360Z,5.90
2022-10-05T04:50:00.276Z,5.70
2022-10-05T04:52:37.686Z,5.77
2022-10-05T04:55:13.481Z,6.93
2022-10-05T04:57:48.675Z,6.07
2022-10-05T05:00:23.615Z,5.80
2022-10-05T05:03:17.672Z,5.80
2022-10-05T05:06:16.434Z,5.53
2022-10-05T05:09:11.167Z,6.13
2022-10-05T05:11:53.873Z,5.43
2022-10-05T05:14:44.695Z,6.00
2022-10-05T05:17:27.742Z,5.93
2022-10-05T05:20:04.895Z,5.37
2022-10-05T05:22:39.143Z,5.73
2022-10-05T05:25:30.122Z,6.03
2022-10-05T05:28:04.956Z,6.60
2022-10-05T05:30:41.893Z,5.43
2022-10-05T05:33:20.033Z,6.30
2022-10-05T05:36:11.933Z,6.07
2022-10-05T05:38:43.870Z,5.80
2022-10-05T05:41:15.320Z,5.63
2022-10-05T05:43:54.138Z,6.20
2022-10-05T05:47:01.931Z,5.77
2022-10-05T05:49:19.153Z,5.93
2022-10-05T05:51:53.290Z,5.47
2022-10-05T05:54:32.426Z,5.57
2022-10-05T05:57:10.893Z,5.90
2022-10-05T05:59:52.587Z,5.77
2022-10-05T06:02:24.672Z,5.93
2022-10-05T06:04:58.233Z,5.57
2022-10-05T06:07:30.990Z,5.70
2022-10-05T06:10:05.847Z,6.07
2022-10-05T06:12:41.407Z,5.83
2022-10-05T06:15:19.542Z,5.70
2022-10-05T06:17:52.720Z,7.53
2022-10-05T06:20:28.804Z,5.83
2022-10-05T06:22:59.887Z,5.57
2022-10-05T06:25:38.745Z,6.37
2022-10-05T06:28:12.284Z,6.20
2022-10-05T06:30:52.966Z,5.43
2022-10-05T06:33:43.638Z,6.30
2022-10-05T06:36:21.627Z,6.17
2022-10-05T06:39:05.689Z,6.00
2022-10-05T06:41:47.602Z,5.80
2022-10-05T06:44:22.804Z,5.17
2022-10-05T06:46:57.767Z,6.20
2022-10-05T06:49:32.315Z,6.30
2022-10-05T06:52:09.755Z,5.97
2022-10-05T06:54:46.819Z,5.97
2022-10-05T06:57:30.771Z,5.33
2022-10-05T07:00:02.948Z,5.27
2022-10-05T07:02:37.454Z,5.60
2022-10-05T07:05:35.704Z,5.90
2022-10-05T07:08:10.803Z,6.37
2022-10-05T07:10:48.910Z,6.03
2022-10-05T07:13:35.062Z,6.10
2022-10-05T07:16:13.505Z,5.67
2022-10-05T07:18:51.430Z,5.70
2022-10-05T07:21:28.829Z,5.77
2022-10-05T07:24:04.519Z,5.60
2022-10-05T07:26:36.727Z,6.03
2022-10-05T07:29:22.501Z,6.40
2022-10-05T07:32:01.111Z,6.27
2022-10-05T07:34:41.031Z,5.93
2022-10-05T07:37:31.030Z,6.40
2022-10-05T07:40:09.789Z,6.57
2022-10-05T07:42:52.259Z,6.57
2022-10-05T07:45:28.623Z,6.70
2022-10-05T07:48:00.210Z,6.83
2022-10-05T07:50:34.887Z,6.70
2022-10-05T07:53:07.474Z,7.00
2022-10-05T07:55:39.843Z,6.40
2022-10-05T07:58:17.542Z,6.00
2022-10-05T08:01:13.025Z,6.73
2022-10-05T08:03:52.248Z,6.33
2022-10-05T08:06:34.756Z,6.63
2022-10-05T08:09:08.137Z,5.40
2022-10-05T08:11:43.607Z,6.40
2022-10-05T08:14:18.306Z,5.83
2022-10-05T08:16:49.530Z,6.00
2022-10-05T08:19:25.199Z,6.50
2022-10-05T08:21:59.501Z,5.80
2022-10-05T08:24:41.824Z,6.60
2022-10-05T08:27:16.135Z,6.27
2022-10-05T08:29:52.458Z,9.00
2022-10-05T08:32:24.835Z,6.43
2022-10-05T08:34:59.873Z,6.40
2022-10-05T08:37:30.625Z,6.43
2022-10-05T08:40:21.921Z,6.47
2022-10-05T08:43:05.402Z,5.77
2022-10-05T08:46:11.646Z,6.50
2022-10-05T08:49:13.212Z,5.53
2022-10-05T08:52:17.088Z,6.60
2022-10-05T08:55:16.041Z,7.00
2022-10-05T08:58:08.505Z,6.60
2022-10-05T09:00:47.341Z,6.43
2022-10-05T09:03:36.656Z,6.73
2022-10-05T09:06:30.702Z,6.77
2022-10-05T09:09:25.811Z,6.60
2022-10-05T09:12:12.821Z,6.83
2022-10-05T09:15:20.509Z,6.77
2022-10-05T09:18:18.353Z,6.17
2022-10-05T09:20:52.979Z,6.07
2022-10-05T09:23:37.224Z,7.10
2022-10-05T09:26:10.315Z,6.90
2022-10-05T09:28:51.462Z,6.43
2022-10-05T09:31:37.318Z,6.07
2022-10-05T09:34:34.904Z,6.23
2022-10-05T09:37:32.055Z,5.83
2022-10-05T09:40:33.229Z,5.77
2022-10-05T09:43:21.204Z,5.67
2022-10-05T09:46:14.279Z,5.37
2022-10-05T09:49:06.935Z,5.50
2022-10-05T09:52:11.044Z,4.93
2022-10-05T09:55:06.561Z,5.23
2022-10-05T09:58:07.352Z,5.30
2022-10-05T10:00:59.576Z,5.63
2022-10-05T10:04:07.029Z,5.33
2022-10-05T10:07:05.022Z,5.90
2022-10-05T10:09:42.510Z,5.80
2022-10-05T10:12:30.839Z,5.53
2022-10-05T10:15:26.337Z,5.60
2022-10-05T10:18:14.697Z,6.10
2022-10-05T10:21:03.935Z,6.00
2022-10-05T10:23:50.644Z,5.37
2022-10-05T10:27:02.689Z,5.53
2022-10-05T10:30:09.696Z,5.40
2022-10-05T10:33:11.308Z,5.23
2022-10-05T10:35:43.219Z,5.53
2022-10-05T10:38:30.260Z,5.13
2022-10-05T10:41:31.110Z,5.33
2022-10-05T10:44:33.663Z,5.00
2022-10-05T10:47:33.931Z,5.00
2022-10-05T10:50:25.090Z,4.93
2022-10-05T10:53:09.969Z,4.97
2022-10-05T10:55:50.213Z,5.23
2022-10-05T10:58:54.203Z,5.30
2022-10-05T11:01:35.289Z,5.30
2022-10-05T11:04:56.920Z,5.03
2022-10-05T11:07:50.897Z,5.27
2022-10-05T11:10:34.980Z,4.93
2022-10-05T11:13:37.778Z,4.60
2022-10-05T11:16:22.903Z,5.00
2022-10-05T11:19:10.955Z,5.27
2022-10-05T11:21:52.893Z,4.60
2022-10-05T11:25:00.772Z,5.10
2022-10-05T11:27:55.602Z,5.77
2022-10-05T11:30:48.898Z,4.27
2022-10-05T11:34:07.984Z,4.57
2022-10-05T11:37:08.178Z,3.73
2022-10-05T11:39:44.979Z,3.70
2022-10-05T11:42:45.981Z,4.13
2022-10-05T11:45:24.954Z,3.73
2022-10-05T11:48:24.571Z,3.33
2022-10-05T11:51:19.079Z,3.87
2022-10-05T11:53:57.525Z,4.03
2022-10-05T11:59:04.570Z,4.17
2022-10-05T12:01:43.247Z,4.57
2022-10-05T12:04:19.914Z,4.20
2022-10-05T12:07:03.293Z,4.40
2022-10-05T12:10:07.166Z,3.80
2022-10-05T12:12:40.141Z,3.97
2022-10-05T12:15:18.578Z,4.00
2022-10-05T12:17:52.874Z,4.10
2022-10-05T12:20:28.126Z,4.10
2022-10-05T12:23:00.628Z,3.87
2022-10-05T12:25:35.029Z,4.10
2022-10-05T12:28:10.217Z,4.47
2022-10-05T12:30:58.820Z,3.67
2022-10-05T12:33:35.443Z,3.60
2022-10-05T12:36:08.914Z,3.73
2022-10-05T12:38:42.720Z,4.27
2022-10-05T12:41:19.294Z,4.07
2022-10-05T12:43:59.889Z,3.30
2022-10-05T12:46:39.271Z,3.70
2022-10-05T12:49:29.261Z,3.57
2022-10-05T12:51:59.437Z,3.80
2022-10-05T12:54:39.460Z,3.63
2022-10-05T12:57:19.685Z,3.77
2022-10-05T12:59:54.863Z,3.70
2022-10-05T13:02:33.205Z,3.27
2022-10-05T13:05:18.627Z,3.40
2022-10-05T13:08:02.409Z,3.53
2022-10-05T13:10:36.391Z,3.93
2022-10-05T13:13:17.306Z,4.00
2022-10-05T13:15:53.666Z,4.00
2022-10-05T13:18:29.638Z,4.23
2022-10-05T13:21:05.246Z,4.10
2022-10-05T13:23:45.874Z,4.07
2022-10-05T13:26:17.613Z,3.60
2022-10-05T13:28:52.893Z,3.63
2022-10-05T13:31:25.778Z,4.10
2022-10-05T13:34:08.562Z,4.20
2022-10-05T13:36:48.282Z,4.13
2022-10-05T13:39:28.351Z,4.00
2022-10-05T13:42:02.576Z,3.97
2022-10-05T13:44:36.965Z,3.70
2022-10-05T13:47:10.811Z,4.00
2022-10-05T13:52:30.258Z,3.73
2022-10-05T13:55:02.990Z,3.87
2022-10-05T13:57:51.521Z,3.97
2022-10-05T14:00:24.233Z,4.20
2022-10-05T14:02:56.403Z,3.97
2022-10-05T14:05:26.817Z,3.73
2022-10-05T14:07:58.457Z,3.77
2022-10-05T14:10:38.598Z,3.33
2022-10-05T14:13:23.436Z,3.80
2022-10-05T14:16:22.167Z,3.80
2022-10-05T14:18:55.816Z,3.77
2022-10-05T14:21:25.258Z,4.03
2022-10-05T14:23:57.170Z,3.80
2022-10-05T14:26:36.588Z,4.17
2022-10-05T14:29:18.515Z,4.03
2022-10-05T14:31:54.733Z,4.27
2022-10-05T14:34:32.678Z,3.63
2022-10-05T14:37:04.757Z,4.50
2022-10-05T14:39:36.240Z,3.70
2022-10-05T14:42:15.809Z,4.17
2022-10-05T14:44:44.308Z,4.43
2022-10-05T14:47:22.615Z,4.50
2022-10-05T14:50:10.788Z,4.37
2022-10-05T14:52:41.123Z,4.03
2022-10-05T14:55:42.644Z,4.27
2022-10-05T14:58:25.799Z,4.07
2022-10-05T15:00:59.485Z,4.47
2022-10-05T15:03:42.488Z,4.50
2022-10-05T15:06:21.382Z,4.40
2022-10-05T15:09:17.038Z,4.57
2022-10-05T15:11:51.190Z,4.20
2022-10-05T15:14:22.920Z,4.10
2022-10-05T15:16:53.891Z,4.30
2022-10-05T15:19:27.232Z,4.47
2022-10-05T15:22:14.588Z,4.70
2022-10-05T15:24:46.671Z,4.33
2022-10-05T15:27:26.183Z,5.00
2022-10-05T15:30:04.384Z,4.70
2022-10-05T15:32:43.926Z,4.90
2022-10-05T15:35:43.592Z,4.90
2022-10-05T15:38:22.737Z,5.13
2022-10-05T15:41:05.707Z,4.63
2022-10-05T15:43:46.949Z,4.73
2022-10-05T15:46:19.588Z,5.10
2022-10-05T15:48:55.476Z,5.10
2022-10-05T15:51:37.131Z,4.93
2022-10-05T15:54:28.899Z,4.43
2022-10-05T15:57:00.388Z,4.53
2022-10-05T15:59:37.584Z,4.73
2022-10-05T16:02:15.609Z,4.40
2022-10-05T16:04:52.760Z,4.47
2022-10-05T16:07:46.363Z,4.17
2022-10-05T16:10:18.205Z,4.50
2022-10-05T16:12:57.995Z,4.23
2022-10-05T16:15:33.382Z,4.33
2022-10-05T16:18:18.473Z,4.47
2022-10-05T16:20:52.354Z,4.23
2022-10-05T16:23:34.806Z,4.07
2022-10-05T16:26:16.766Z,4.40
2022-10-05T16:28:58.424Z,4.53
2022-10-05T16:31:37.484Z,4.77
2022-10-05T16:34:18.365Z,4.70
2022-10-05T16:36:58.780Z,3.70
2022-10-05T16:39:44.882Z,4.50
2022-10-05T16:42:23.425Z,4.03
2022-10-05T16:45:06.746Z,4.30
2022-10-05T16:47:46.281Z,4.50
2022-10-05T16:50:24.215Z,4.63
2022-10-05T16:52:57.994Z,4.70
2022-10-05T16:55:32.651Z,4.93
2022-10-05T16:58:03.147Z,4.87
2022-10-05T17:00:40.763Z,5.03
2022-10-05T17:03:20.886Z,4.90
2022-10-05T17:06:05.959Z,4.93
2022-10-05T17:08:49.279Z,5.63
2022-10-05T17:11:29.518Z,5.13
2022-10-05T17:14:18.926Z,10.17
2022-10-05T17:17:01.377Z,5.73
2022-10-05T17:19:46.664Z,5.07
2022-10-05T17:22:26.381Z,5.13
2022-10-05T17:25:02.759Z,4.70
2022-10-05T17:27:36.428Z,5.03
2022-10-05T17:30:41.895Z,4.73
2022-10-05T17:33:26.147Z,4.53
2022-10-05T17:36:30.663Z,4.67
2022-10-05T17:39:15.652Z,4.80
2022-10-05T17:41:44.220Z,4.80
2022-10-05T17:44:26.435Z,4.97
2022-10-05T17:46:57.231Z,4.80
2022-10-05T17:50:14.694Z,4.40
2022-10-05T17:53:02.403Z,4.17
2022-10-05T17:55:45.490Z,4.40
2022-10-05T17:59:02.321Z,4.20
2022-10-05T18:01:34.787Z,4.77
2022-10-05T18:04:38.488Z,4.13
2022-10-05T18:07:24.951Z,4.63
2022-10-05T18:10:17.290Z,4.67
2022-10-05T18:12:51.611Z,4.60
2022-10-05T18:15:45.947Z,4.23
2022-10-05T18:18:56.638Z,4.50
2022-10-05T18:21:37.645Z,4.53
2022-10-05T18:24:44.370Z,4.47
2022-10-05T18:27:44.797Z,5.27
2022-10-05T18:30:21.103Z,4.83
2022-10-05T18:33:27.179Z,4.57
2022-10-05T18:36:06.930Z,4.77
2022-10-05T18:38:46.462Z,5.00
2022-10-05T18:41:23.695Z,4.70
2022-10-05T18:44:03.453Z,4.50
2022-10-05T18:46:45.938Z,4.93
2022-10-05T18:49:31.040Z,4.77
2022-10-05T18:52:08.439Z,5.13
2022-10-05T18:54:48.085Z,4.70
2022-10-05T18:57:45.008Z,4.70
2022-10-05T19:00:17.516Z,4.63
2022-10-05T19:02:51.947Z,5.03
2022-10-05T19:05:48.047Z,4.00
2022-10-05T19:08:28.696Z,5.43
2022-10-05T19:11:02.908Z,5.00
2022-10-05T19:13:42.502Z,4.60
2022-10-05T19:16:28.237Z,4.50
2022-10-05T19:19:10.748Z,4.80
2022-10-05T19:21:48.173Z,4.70
2022-10-05T19:24:40.677Z,4.27
2022-10-05T19:27:14.795Z,4.27
2022-10-05T19:30:10.688Z,4.60
2022-10-05T19:32:54.876Z,4.60
2022-10-05T19:35:33.250Z,4.40
2022-10-05T19:38:15.844Z,4.50
2022-10-05T19:40:53.417Z,4.50
2022-10-05T19:43:36.433Z,4.50
2022-10-05T19:46:19.009Z,4.80
2022-10-05T19:48:50.037Z,4.40
2022-10-05T19:51:30.890Z,4.67
2022-10-05T19:54:02.254Z,4.13
2022-10-05T19:56:34.024Z,4.77
2022-10-05T19:59:13.228Z,4.57
2022-10-05T20:01:48.864Z,5.03
2022-10-05T20:04:38.145Z,4.80
2022-10-05T20:07:12.293Z,4.50
2022-10-05T20:09:51.845Z,4.13
2022-10-05T20:12:22.557Z,4.37
2022-10-05T20:15:23.538Z,4.63
2022-10-05T20:18:09.394Z,4.03
2022-10-05T20:20:43.259Z,4.30
2022-10-05T20:23:25.741Z,4.77
2022-10-05T20:26:11.404Z,4.33
2022-10-05T20:28:39.406Z,4.17
2022-10-05T20:31:08.629Z,4.20
2022-10-05T20:33:36.519Z,4.33
2022-10-05T20:36:04.742Z,4.00
2022-10-05T20:38:40.056Z,4.00
2022-10-05T20:41:09.003Z,4.00
2022-10-05T20:43:38.977Z,4.07
2022-10-05T20:46:07.616Z,3.33
2022-10-05T20:48:36.035Z,4.10
2022-10-05T20:51:03.722Z,4.10
2022-10-05T20:53:33.543Z,3.97
2022-10-05T20:56:02.503Z,3.93
2022-10-05T20:58:30.748Z,3.70
2022-10-05T21:01:18.987Z,3.73
2022-10-05T21:03:47.532Z,3.70
2022-10-05T21:06:15.209Z,4.00
2022-10-05T21:08:46.307Z,3.63
2022-10-05T21:11:14.491Z,3.70
2022-10-05T21:13:44.721Z,4.00
2022-10-05T21:16:13.490Z,4.00
2022-10-05T21:18:41.373Z,4.13
2022-10-05T21:21:09.122Z,4.43
2022-10-05T21:23:36.887Z,4.03
2022-10-05T21:26:07.848Z,3.87
2022-10-05T21:28:35.656Z,4.07
2022-10-05T21:31:03.422Z,4.23
2022-10-05T21:33:31.422Z,4.23
2022-10-05T21:35:59.647Z,4.07
2022-10-05T21:38:27.841Z,3.43
2022-10-05T21:40:56.377Z,4.43
2022-10-05T21:43:25.966Z,4.00
2022-10-05T21:45:55.578Z,4.17
2022-10-05T21:48:24.395Z,3.97
2022-10-05T21:50:52.292Z,4.20
2022-10-05T21:53:23.853Z,3.73
2022-10-05T21:55:52.582Z,3.73
2022-10-05T21:58:22.839Z,3.60
2022-10-05T22:00:51.955Z,4.07
2022-10-05T22:03:20.236Z,4.07
2022-10-05T22:05:48.472Z,4.00
2022-10-05T22:08:22.270Z,3.73
2022-10-05T22:10:50.273Z,4.13
2022-10-05T22:13:18.564Z,3.83
2022-10-05T22:15:46.268Z,3.90
2022-10-05T22:18:19.012Z,3.93
2022-10-05T22:20:47.131Z,3.40
2022-10-05T22:23:14.881Z,3.57
2022-10-05T22:25:43.377Z,3.20
2022-10-05T22:28:14.585Z,3.43
2022-10-05T22:30:44.570Z,3.70
2022-10-05T22:33:12.279Z,3.90
2022-10-05T22:35:41.502Z,3.67
2022-10-05T22:38:09.245Z,3.50
2022-10-05T22:40:37.463Z,3.47
2022-10-05T22:43:05.172Z,3.63
2022-10-05T22:45:32.975Z,3.37
2022-10-05T22:48:00.715Z,3.83
2022-10-05T22:50:28.390Z,3.50
2022-10-05T22:52:57.437Z,3.87
2022-10-05T22:55:25.572Z,3.40
2022-10-05T22:57:53.458Z,3.40
2022-10-05T23:00:27.610Z,3.60
2022-10-05T23:02:59.030Z,3.43
2022-10-05T23:05:26.859Z,3.37
2022-10-05T23:07:54.578Z,3.60
2022-10-05T23:10:24.264Z,3.50
2022-10-05T23:13:00.345Z,3.70
2022-10-05T23:15:28.832Z,3.37
2022-10-05T23:17:57.577Z,3.50
2022-10-05T23:20:25.988Z,3.47
2022-10-05T23:22:53.791Z,3.43
2022-10-05T23:25:23.217Z,3.77
2022-10-05T23:27:51.045Z,3.70
2022-10-05T23:30:18.916Z,3.67
2022-10-05T23:32:46.938Z,3.63
2022-10-05T23:35:14.755Z,3.20
2022-10-05T23:37:44.365Z,3.37
2022-10-05T23:40:14.367Z,3.53
2022-10-05T23:42:43.529Z,3.20
2022-10-05T23:45:12.651Z,3.50
2022-10-05T23:47:41.073Z,3.50
2022-10-05T23:50:10.712Z,3.50
2022-10-05T23:52:38.921Z,3.87
2022-10-05T23:55:07.739Z,3.10
2022-10-05T23:57:35.432Z,3.20
